Time;durP1;ratioP1;P1;durP2;ratioP2;P2;SDS_P1;SDS_P2;PMS_P1;PMS_P2;Temp;Humidity;BMP_temperature;BMP_pressure;BME280_temperature;BME280_humidity;BME280_pressure;Samples;Min_cycle;Max_cycle;Signal;HPM_P1;HPM_P2
2024/02/26 00:01:06;;;;;;;0.95;0.95;;;;;;;2.72;70.45;99983.00;15873362;28;20430;-52
2024/02/26 00:08:41;;;;;;;0.17;0.17;;;;;;;2.10;71.23;99976.94;15870040;28;20546;-51
2024/02/26 00:16:20;;;;;;;1.85;1.70;;;;;;;2.63;71.44;99975.28;15876487;27;20047;-52
2024/02/26 00:23:55;;;;;;;0.30;0.30;;;;;;;2.47;72.24;99971.78;15870006;28;20058;-49
2024/02/26 00:31:28;;;;;;;1.63;1.48;;;;;;;2.43;71.71;99959.88;15869343;28;20074;-52
2024/02/26 00:39:03;;;;;;;0.15;0.15;;;;;;;2.46;71.15;99953.38;15867896;28;20157;-52
2024/02/26 00:46:37;;;;;;;2.90;1.25;;;;;;;2.36;70.70;99952.81;15885931;27;20041;-50
2024/02/26 00:54:13;;;;;;;1.02;0.93;;;;;;;2.24;71.18;99955.06;15931040;27;20099;-52
2024/02/26 01:01:46;;;;;;;2.20;0.55;;;;;;;2.16;70.90;99947.97;15930999;27;20041;-51
2024/02/26 01:09:21;;;;;;;0.25;0.25;;;;;;;1.94;70.23;99954.88;15911873;27;20457;-51
2024/02/26 01:16:59;;;;;;;1.63;1.05;;;;;;;1.97;71.06;99946.59;15901795;27;20114;-51
2024/02/26 01:24:35;;;;;;;5.32;2.47;;;;;;;2.05;70.80;99935.13;15865666;28;20560;-52
2024/02/26 01:32:11;;;;;;;0.22;0.22;;;;;;;2.06;71.06;99939.44;15847752;28;20032;-53
2024/02/26 01:39:47;;;;;;;0.30;0.30;;;;;;;1.55;71.63;99878.22;15865021;28;20123;-51
2024/02/26 01:47:22;;;;;;;1.10;1.08;;;;;;;1.64;72.51;99929.25;15889240;27;20250;-53
2024/02/26 01:54:57;;;;;;;0.20;0.20;;;;;;;1.68;72.97;99935.81;15908378;27;20195;-51
2024/02/26 02:02:31;;;;;;;2.55;2.10;;;;;;;1.73;72.35;99947.56;15908115;27;20130;-55
2024/02/26 02:10:09;;;;;;;0.10;0.10;;;;;;;1.63;72.63;99943.44;15926111;27;20396;-51
2024/02/26 02:17:46;;;;;;;0.65;0.65;;;;;;;1.74;72.47;99935.97;15909413;27;20656;-52
2024/02/26 02:25:20;;;;;;;;;;;;;;;1.77;72.13;99938.28;15847190;28;20042;-51
2024/02/26 02:32:58;;;;;;;0.20;0.20;;;;;;;1.57;71.60;99938.84;15868365;28;19920;-52
2024/02/26 02:40:33;;;;;;;2.67;2.47;;;;;;;1.71;72.11;99946.88;15885756;27;20039;-50
2024/02/26 02:48:07;;;;;;;0.47;0.47;;;;;;;1.53;72.60;99948.94;15892794;27;20054;-51
2024/02/26 02:55:42;;;;;;;0.80;0.80;;;;;;;1.68;72.04;99943.75;15924182;28;20092;-53
2024/02/26 03:03:17;;;;;;;2.08;1.98;;;;;;;1.81;72.89;99949.31;15924225;27;20043;-51
2024/02/26 03:10:53;;;;;;;0.13;0.13;;;;;;;1.96;73.17;99944.13;15917089;27;20495;-49
2024/02/26 03:18:28;;;;;;;0.47;0.47;;;;;;;1.32;74.66;99893.19;15898357;27;20503;-49
2024/02/26 03:26:05;;;;;;;0.00;0.00;;;;;;;1.38;78.08;99925.03;15877318;28;20190;-49
2024/02/26 03:33:40;;;;;;;0.40;0.38;;;;;;;1.73;77.83;99931.69;15882304;28;20043;-52
2024/02/26 03:41:15;;;;;;;0.20;0.20;;;;;;;1.30;79.34;99948.84;15875401;28;20044;-55
2024/02/26 03:48:53;;;;;;;0.00;0.00;;;;;;;1.78;79.23;99949.69;15910562;27;20055;-53
2024/02/26 03:56:31;;;;;;;0.57;0.52;;;;;;;2.08;75.54;99960.44;15935358;27;20035;-52
2024/02/26 04:04:05;;;;;;;1.85;0.57;;;;;;;1.35;78.42;99961.56;15934661;27;20043;-54
2024/02/26 04:11:43;;;;;;;0.73;0.73;;;;;;;0.61;83.01;99911.50;15934393;27;20043;-51
2024/02/26 04:19:16;;;;;;;1.02;0.73;;;;;;;1.62;81.33;99968.25;15884665;27;20043;-49
2024/02/26 04:26:51;;;;;;;0.35;0.35;;;;;;;1.70;80.27;99976.16;15878659;27;20476;-51
2024/02/26 04:34:25;;;;;;;0.43;0.43;;;;;;;1.23;83.61;99982.25;15910735;27;20035;-51
2024/02/26 04:42:03;;;;;;;1.40;1.30;;;;;;;1.69;81.48;99982.47;15849888;28;20095;-52
2024/02/26 04:49:37;;;;;;;0.45;0.38;;;;;;;2.02;78.80;99989.25;15885059;27;20045;-50
2024/02/26 04:57:12;;;;;;;0.20;0.20;;;;;;;1.57;78.91;99995.22;15846826;27;20485;-50
2024/02/26 05:04:46;;;;;;;0.28;0.28;;;;;;;1.69;79.56;100008.91;15866167;27;20453;-50
2024/02/26 05:12:20;;;;;;;2.25;2.05;;;;;;;1.29;81.39;100015.94;15849596;28;20050;-49
2024/02/26 05:19:54;;;;;;;2.10;1.48;;;;;;;1.13;82.52;100019.44;15874596;27;20050;-53
2024/02/26 05:27:30;;;;;;;0.85;0.63;;;;;;;1.25;82.74;100017.25;15898382;27;20043;-51
2024/02/26 05:35:04;;;;;;;0.10;0.10;;;;;;;1.27;82.84;100024.06;15876188;27;20047;-53
2024/02/26 05:42:39;;;;;;;0.00;0.00;;;;;;;0.99;84.90;100028.88;15866345;28;20040;-49
2024/02/26 05:50:15;;;;;;;7.63;2.90;;;;;;;1.07;84.93;100021.91;15914711;27;20067;-50
2024/02/26 05:57:55;;;;;;;1.67;0.80;;;;;;;1.09;84.86;100039.25;15895979;27;20047;-50
2024/02/26 06:05:29;;;;;;;4.43;4.10;;;;;;;1.00;87.01;100049.00;15935238;27;20066;-53
2024/02/26 06:13:04;;;;;;;1.95;1.85;;;;;;;1.21;85.53;100045.03;15912909;27;20080;-49
2024/02/26 06:20:38;;;;;;;0.10;0.10;;;;;;;1.26;85.63;100061.25;15871697;27;20039;-49
2024/02/26 06:28:13;;;;;;;0.00;0.00;;;;;;;1.64;84.28;100064.97;15866306;28;20126;-47
2024/02/26 06:35:46;;;;;;;0.30;0.30;;;;;;;1.71;85.25;100073.03;15845047;28;20036;-49
2024/02/26 06:43:26;;;;;;;0.17;0.17;;;;;;;2.29;84.32;100077.16;15844946;28;20024;-52
2024/02/26 06:50:59;;;;;;;1.85;1.30;;;;;;;2.40;82.73;100091.81;15900412;27;20495;-49
2024/02/26 06:58:34;;;;;;;0.75;0.75;;;;;;;2.65;81.63;100089.84;15925495;27;20051;-52
2024/02/26 07:06:09;;;;;;;0.10;0.10;;;;;;;2.35;83.68;100073.81;15928983;28;20468;-48
2024/02/26 07:13:44;;;;;;;0.52;0.52;;;;;;;2.88;82.59;100103.94;15896704;27;20151;-49
2024/02/26 07:21:20;;;;;;;1.23;0.98;;;;;;;3.39;81.05;100098.09;15868394;28;20044;-51
2024/02/26 07:28:55;;;;;;;1.13;1.02;;;;;;;5.04;75.38;100105.59;15859991;28;20100;-51
2024/02/26 07:36:29;;;;;;;0.05;0.05;;;;;;;5.01;75.49;100116.59;15859461;28;20622;-49
2024/02/26 07:44:04;;;;;;;;;;;;;;;4.44;77.96;100109.41;15859710;28;20400;-53
2024/02/26 07:51:37;;;;;;;0.47;0.47;;;;;;;4.50;77.28;100113.97;15876615;28;20006;-49
2024/02/26 07:59:12;;;;;;;;;;;;;;;4.61;76.93;100112.66;15872616;28;20040;-50
2024/02/26 08:06:46;;;;;;;0.20;0.20;;;;;;;4.38;78.47;100119.94;15866233;28;19970;-52
2024/02/26 08:14:22;;;;;;;0.45;0.35;;;;;;;4.79;78.12;100123.72;15877083;27;20042;-49
2024/02/26 08:22:05;;;;;;;6.03;2.35;;;;;;;5.59;75.41;100116.47;15883381;27;20051;-49
2024/02/26 08:29:41;;;;;;;0.65;0.43;;;;;;;5.93;74.09;100122.91;15870095;28;20162;-50
2024/02/26 08:37:16;;;;;;;0.90;0.73;;;;;;;7.27;69.62;100115.19;15870263;28;20553;-49
2024/02/26 08:44:54;;;;;;;0.88;0.88;;;;;;;7.09;70.43;100105.13;15851911;27;20515;-50
2024/02/26 08:52:33;;;;;;;5.20;1.75;;;;;;;8.06;67.40;100109.81;15911661;27;20035;-51
2024/02/26 09:00:09;;;;;;;3.33;1.52;;;;;;;8.84;64.34;100108.94;15928222;27;20051;-51
2024/02/26 09:07:43;;;;;;;0.40;0.40;;;;;;;8.72;63.40;100116.81;15927593;27;20035;-49
2024/02/26 09:15:18;;;;;;;0.45;0.45;;;;;;;8.65;64.53;100113.34;15879722;27;20139;-49
2024/02/26 09:22:53;;;;;;;0.40;0.30;;;;;;;8.72;64.20;100129.34;15872107;27;20101;-49
2024/02/26 09:30:28;;;;;;;0.95;0.93;;;;;;;9.08;62.84;100126.09;15867874;28;20043;-48
2024/02/26 09:38:03;;;;;;;0.93;0.88;;;;;;;9.66;62.07;100132.06;15864404;28;20603;-51
2024/02/26 09:45:38;;;;;;;1.17;1.05;;;;;;;9.88;60.42;100120.91;15855075;27;20399;-50
2024/02/26 09:53:14;;;;;;;0.10;0.10;;;;;;;10.40;58.91;100116.09;15928379;27;20040;-50
2024/02/26 10:00:56;;;;;;;5.80;2.08;;;;;;;11.18;58.00;100115.25;15895249;27;20086;-51
2024/02/26 10:08:32;;;;;;;8.82;1.65;;;;;;;11.08;57.26;100125.72;15942252;22;20063;-48
2024/02/26 10:16:08;;;;;;;0.38;0.38;;;;;;;11.81;54.68;100127.28;15851436;28;20139;-53
2024/02/26 10:23:41;;;;;;;0.80;0.80;;;;;;;10.80;57.18;100137.06;15846664;28;20507;-49
2024/02/26 10:31:17;;;;;;;0.45;0.43;;;;;;;12.37;52.20;100132.06;15856783;28;20043;-51
2024/02/26 10:38:53;;;;;;;0.85;0.85;;;;;;;12.82;51.73;100131.34;15861336;28;20275;-50
2024/02/26 10:46:27;;;;;;;0.20;0.20;;;;;;;12.67;51.57;100126.47;15828649;28;20157;-51
2024/02/26 10:54:02;;;;;;;0.45;0.40;;;;;;;13.18;49.29;100127.44;15831034;28;20480;-50
2024/02/26 11:01:38;;;;;;;3.95;1.52;;;;;;;13.25;48.39;100130.84;15856015;28;20047;-52
2024/02/26 11:09:14;;;;;;;0.20;0.20;;;;;;;13.24;48.33;100128.38;15834592;28;20122;-50
2024/02/26 11:16:51;;;;;;;0.40;0.40;;;;;;;13.69;48.03;100122.13;15856704;28;20044;-50
2024/02/26 11:24:33;;;;;;;1.15;0.77;;;;;;;13.14;49.21;100126.28;15819997;28;20502;-54
2024/02/26 11:32:08;;;;;;;0.10;0.10;;;;;;;12.81;48.39;100118.13;15865785;28;20293;-52
2024/02/26 11:39:44;;;;;;;2.55;0.80;;;;;;;13.20;47.40;100117.25;15863020;28;20065;-52
2024/02/26 11:47:21;;;;;;;0.00;0.00;;;;;;;12.75;48.03;100120.72;15828437;28;20036;-48
2024/02/26 11:54:57;;;;;;;0.10;0.10;;;;;;;12.59;48.11;100113.41;15821007;28;20040;-51
2024/02/26 12:02:47;;;;;;;0.57;0.57;;;;;;;12.57;48.28;100120.09;15870011;28;20070;-51
2024/02/26 12:10:26;;;;;;;0.35;0.35;;;;;;;13.45;46.20;100116.09;15869036;28;20551;-52
2024/02/26 12:18:05;;;;;;;0.52;0.35;;;;;;;14.76;42.95;100105.50;15851190;28;20039;-51
2024/02/26 12:25:39;;;;;;;0.28;0.28;;;;;;;14.16;43.42;100119.03;15865460;28;20040;-48
2024/02/26 12:33:18;;;;;;;0.00;0.00;;;;;;;14.77;42.35;100130.63;15850212;28;20103;-49
2024/02/26 12:40:51;;;;;;;2.55;0.52;;;;;;;14.00;43.80;100136.91;15868254;28;20627;-49
2024/02/26 12:48:26;;;;;;;0.30;0.30;;;;;;;14.42;43.15;100125.59;15836740;28;20400;-51
2024/02/26 12:56:01;;;;;;;1.02;0.93;;;;;;;14.00;44.17;100124.22;15804108;28;20044;-49
2024/02/26 13:03:37;;;;;;;1.75;0.55;;;;;;;13.31;45.22;100123.66;15798718;28;20137;-50
2024/02/26 13:11:10;;;;;;;0.00;0.00;;;;;;;12.47;46.16;100116.13;15802949;28;20044;-47
2024/02/26 13:18:46;;;;;;;0.47;0.47;;;;;;;12.50;45.86;100120.25;15812156;28;20127;-50
2024/02/26 13:26:23;;;;;;;0.38;0.38;;;;;;;12.40;46.70;100128.91;15856875;28;20053;-49
2024/02/26 13:33:58;;;;;;;0.32;0.32;;;;;;;12.17;45.25;100128.94;15850682;28;20047;-51
2024/02/26 13:41:32;;;;;;;0.40;0.40;;;;;;;12.08;44.48;100122.28;15858580;28;20054;-50
2024/02/26 13:49:09;;;;;;;0.15;0.15;;;;;;;12.28;45.12;100128.09;15810150;28;20443;-52
2024/02/26 13:56:44;;;;;;;7.97;0.65;;;;;;;11.91;45.77;100133.75;15799832;28;20040;-51
2024/02/26 14:04:19;;;;;;;0.47;0.47;;;;;;;11.77;45.32;100159.19;15782733;28;20127;-55
2024/02/26 14:11:52;;;;;;;0.00;0.00;;;;;;;11.85;45.43;100169.66;15799593;28;20094;-52
2024/02/26 14:19:28;;;;;;;0.05;0.05;;;;;;;11.92;45.58;100177.59;15788844;28;20446;-47
2024/02/26 14:27:02;;;;;;;0.17;0.17;;;;;;;11.70;47.74;100191.56;15805769;28;20044;-47
2024/02/26 14:34:37;;;;;;;1.10;0.88;;;;;;;11.89;46.44;100203.09;15822229;28;20059;-51
2024/02/26 14:42:11;;;;;;;5.18;0.65;;;;;;;11.79;47.58;100212.72;15861172;28;20056;-51
2024/02/26 14:49:48;;;;;;;1.65;0.90;;;;;;;11.70;47.62;100209.56;15840724;28;20062;-49
2024/02/26 14:57:21;;;;;;;0.15;0.15;;;;;;;11.39;48.52;100224.91;15857937;28;20108;-51
2024/02/26 15:04:59;;;;;;;0.32;0.10;;;;;;;11.48;49.85;100230.78;15862573;28;20047;-51
2024/02/26 15:12:35;;;;;;;0.13;0.13;;;;;;;11.39;51.59;100226.78;15851511;28;20416;-50
2024/02/26 15:20:12;;;;;;;0.47;0.20;;;;;;;10.95;52.78;100236.81;15846321;28;20039;-52
2024/02/26 15:27:51;;;;;;;0.30;0.30;;;;;;;10.78;53.14;100244.69;15864090;28;20077;-50
2024/02/26 15:35:26;;;;;;;0.00;0.00;;;;;;;10.79;53.16;100250.88;15871655;28;20463;-48
2024/02/26 15:43:00;;;;;;;0.60;0.60;;;;;;;10.82;53.41;100251.25;15865855;28;20067;-49
2024/02/26 15:50:37;;;;;;;0.00;0.00;;;;;;;10.32;54.87;100255.88;15870418;28;20430;-52
2024/02/26 15:58:12;;;;;;;0.85;0.40;;;;;;;10.31;55.44;100263.13;15847829;28;20043;-48
2024/02/26 16:05:47;;;;;;;0.05;0.05;;;;;;;10.52;54.53;100258.38;15848349;28;20127;-51
2024/02/26 16:13:21;;;;;;;1.00;0.75;;;;;;;10.20;55.89;100277.19;15844246;28;20241;-47
2024/02/26 16:20:57;;;;;;;0.90;0.40;;;;;;;9.92;56.61;100282.97;15869744;28;20722;-46
2024/02/26 16:28:32;;;;;;;2.72;0.22;;;;;;;9.70;57.72;100301.28;15863147;28;20077;-50
2024/02/26 16:36:07;;;;;;;1.25;0.50;;;;;;;9.75;58.48;100317.53;15868055;28;20043;-49
2024/02/26 16:43:47;;;;;;;1.05;0.52;;;;;;;9.57;59.39;100317.41;15867514;28;20081;-52
2024/02/26 16:51:22;;;;;;;0.85;0.73;;;;;;;9.75;58.96;100322.06;15812857;28;20052;-49
2024/02/26 16:58:56;;;;;;;4.78;1.38;;;;;;;9.47;60.84;100320.56;15842577;28;20043;-50
2024/02/26 17:06:30;;;;;;;;;;;;;;;9.55;61.27;100320.28;15866582;28;20140;-49
2024/02/26 17:14:04;;;;;;;0.75;0.75;;;;;;;9.34;62.01;100334.81;15847256;28;19973;-49
2024/02/26 17:21:40;;;;;;;0.60;0.60;;;;;;;9.41;62.28;100346.31;15801316;28;20078;-51
2024/02/26 17:29:15;;;;;;;0.98;0.88;;;;;;;9.68;61.38;100355.06;15806037;28;20454;-49
2024/02/26 17:36:52;;;;;;;0.52;0.52;;;;;;;9.74;61.33;100384.72;15845087;28;20137;-47
2024/02/26 17:44:33;;;;;;;0.95;0.82;;;;;;;9.57;61.93;100403.97;15849364;28;20310;-48
2024/02/26 17:52:08;;;;;;;0.00;0.00;;;;;;;9.74;60.84;100412.34;15849923;28;20429;-50
2024/02/26 17:59:42;;;;;;;0.28;0.28;;;;;;;9.51;62.44;100422.75;15847199;28;20446;-49
2024/02/26 18:07:17;;;;;;;0.30;0.30;;;;;;;9.43;63.80;100437.22;15826352;28;20035;-46
2024/02/26 18:14:51;;;;;;;3.20;0.47;;;;;;;9.74;63.42;100449.88;15810101;28;20093;-50
2024/02/26 18:22:28;;;;;;;2.95;1.67;;;;;;;9.31;64.92;100462.97;15853958;28;20117;-47
2024/02/26 18:30:01;;;;;;;0.10;0.10;;;;;;;9.04;66.01;100476.38;15860653;28;20081;-49
2024/02/26 18:37:37;;;;;;;0.17;0.17;;;;;;;9.10;65.84;100478.25;15860360;28;20042;-50
2024/02/26 18:45:10;;;;;;;11.75;3.70;;;;;;;8.77;67.16;100480.13;15857147;28;20059;-50
2024/02/26 18:52:46;;;;;;;0.30;0.30;;;;;;;8.95;66.59;100482.97;15819830;28;20039;-47
2024/02/26 19:00:21;;;;;;;3.42;1.38;;;;;;;8.96;66.13;100478.47;15851062;28;20350;-50
2024/02/26 19:07:58;;;;;;;0.88;0.88;;;;;;;8.78;66.46;100482.56;15798543;28;20074;-53
2024/02/26 19:15:41;;;;;;;0.15;0.15;;;;;;;8.33;67.89;100486.78;15779962;28;20098;-47
2024/02/26 19:23:16;;;;;;;0.28;0.28;;;;;;;8.98;66.00;100485.25;15798304;28;20036;-47
2024/02/26 19:30:49;;;;;;;5.38;1.08;;;;;;;8.49;67.92;100491.81;15847032;28;20052;-46
2024/02/26 19:38:24;;;;;;;1.17;0.63;;;;;;;8.40;68.11;100487.66;15844928;28;20499;-51
2024/02/26 19:46:00;;;;;;;0.00;0.00;;;;;;;8.17;68.35;100496.00;15851149;28;20033;-49
2024/02/26 19:53:35;;;;;;;0.35;0.35;;;;;;;8.01;68.69;100509.69;15837051;28;20043;-45
2024/02/26 20:01:10;;;;;;;0.20;0.10;;;;;;;8.11;68.43;100524.34;15833958;28;20048;-44
2024/02/26 20:08:47;;;;;;;1.13;1.02;;;;;;;7.84;68.99;100531.41;15868957;28;20039;-49
2024/02/26 20:16:20;;;;;;;1.17;0.63;;;;;;;8.03;67.74;100537.88;15866547;28;20040;-47
2024/02/26 20:23:55;;;;;;;0.00;0.00;;;;;;;8.22;67.43;100547.00;15867795;28;20046;-49
2024/02/26 20:31:28;;;;;;;0.00;0.00;;;;;;;7.52;69.22;100562.25;15858835;28;20454;-48
2024/02/26 20:39:03;;;;;;;0.30;0.30;;;;;;;7.95;66.98;100518.50;15866307;28;20094;-50
2024/02/26 20:46:40;;;;;;;0.65;0.28;;;;;;;8.02;67.15;100562.13;15851962;28;20039;-49
2024/02/26 20:54:17;;;;;;;0.35;0.35;;;;;;;7.45;68.26;100585.38;15839093;28;20051;-53
2024/02/26 21:01:50;;;;;;;0.00;0.00;;;;;;;7.63;67.86;100587.59;15846885;28;20555;-52
2024/02/26 21:09:26;;;;;;;0.00;0.00;;;;;;;7.25;68.51;100609.25;15863897;28;20065;-53
2024/02/26 21:16:59;;;;;;;1.65;0.65;;;;;;;7.13;68.51;100611.63;15864245;28;20047;-49
2024/02/26 21:24:35;;;;;;;0.35;0.32;;;;;;;7.04;68.58;100607.44;15864529;28;20046;-49
2024/02/26 21:32:08;;;;;;;0.65;0.43;;;;;;;6.89;69.26;100625.31;15864005;28;20035;-48
2024/02/26 21:39:45;;;;;;;0.75;0.75;;;;;;;6.82;68.79;100629.78;15863422;28;20500;-53
2024/02/26 21:47:19;;;;;;;2.25;1.27;;;;;;;7.03;68.61;100640.44;15842287;28;20493;-46
2024/02/26 21:54:57;;;;;;;0.22;0.22;;;;;;;6.53;69.93;100636.81;15843187;28;20557;-50
2024/02/26 22:02:30;;;;;;;0.00;0.00;;;;;;;6.31;70.43;100643.91;15810624;28;20119;-48
2024/02/26 22:10:07;;;;;;;0.00;0.00;;;;;;;6.31;70.36;100654.59;15810719;22;20082;-51
2024/02/26 22:17:41;;;;;;;0.32;0.32;;;;;;;6.51;70.01;100659.34;15771829;28;20048;-47
2024/02/26 22:25:17;;;;;;;0.52;0.52;;;;;;;6.52;69.85;100661.00;15788869;28;20047;-50
2024/02/26 22:32:50;;;;;;;0.10;0.10;;;;;;;6.48;69.67;100673.03;15769699;28;20583;-48
2024/02/26 22:40:24;;;;;;;0.80;0.65;;;;;;;6.60;69.57;100666.22;15789802;28;20504;-43
2024/02/26 22:47:58;;;;;;;1.05;0.98;;;;;;;6.47;69.94;100671.38;15790023;28;20044;-48
2024/02/26 22:55:32;;;;;;;0.08;0.08;;;;;;;6.50;69.19;100679.84;15771982;28;20457;-45
2024/02/26 23:03:13;;;;;;;0.10;0.10;;;;;;;6.45;69.05;100690.25;15789384;28;20047;-43
2024/02/26 23:10:49;;;;;;;0.20;0.20;;;;;;;6.03;70.74;100686.38;15771369;28;20037;-45
2024/02/26 23:18:23;;;;;;;0.40;0.40;;;;;;;6.09;70.80;100692.78;15706293;28;20044;-50
2024/02/26 23:25:58;;;;;;;0.10;0.10;;;;;;;6.30;69.65;100686.75;15710585;28;20052;-46
2024/02/26 23:33:31;;;;;;;0.05;0.05;;;;;;;5.79;71.92;100695.38;15734838;28;20071;-47
2024/02/26 23:41:06;;;;;;;0.10;0.10;;;;;;;6.06;70.92;100688.69;15733957;28;20105;-48
2024/02/26 23:48:41;;;;;;;5.38;0.57;;;;;;;5.48;73.45;100703.44;15715873;28;20112;-48
2024/02/26 23:56:16;;;;;;;0.10;0.10;;;;;;;5.51;72.82;100704.94;15734269;28;20041;-51
